Time;durP1;ratioP1;P1;durP2;ratioP2;P2;SDS_P1;SDS_P2;PMS_P1;PMS_P2;Temp;Humidity;BMP_temperature;BMP_pressure;BME280_temperature;BME280_humidity;BME280_pressure;Samples;Min_cycle;Max_cycle;Signal;HPM_P1;HPM_P2
2023/06/19 00:02:11;;;;;;;0.20;0.20;;;;;;;;;;4945288;28;20578;-75
2023/06/19 00:04:38;;;;;;;0.20;0.20;;;;;;;;;;4928633;28;20115;-75
2023/06/19 00:07:04;;;;;;;0.20;0.20;;;;;;;;;;4945646;28;20067;-76
2023/06/19 00:09:31;;;;;;;1.08;0.40;;;;;;;;;;4945154;28;20146;-77
2023/06/19 00:11:59;;;;;;;0.28;0.28;;;;;;;;;;4949793;28;20048;-78
2023/06/19 00:14:25;;;;;;;0.38;0.30;;;;;;;;;;4946499;28;20060;-75
2023/06/19 00:16:52;;;;;;;0.20;0.20;;;;;;;;;;4945615;28;20155;-76
2023/06/19 00:19:18;;;;;;;0.20;0.20;;;;;;;;;;4944919;28;20064;-76
2023/06/19 00:21:45;;;;;;;0.40;0.40;;;;;;;;;;4945631;28;20051;-76
2023/06/19 00:24:12;;;;;;;0.20;0.20;;;;;;;;;;4945206;28;20052;-76
2023/06/19 00:26:39;;;;;;;0.43;0.32;;;;;;;;;;4945049;28;20750;-76
2023/06/19 00:29:07;;;;;;;0.57;0.30;;;;;;;;;;4945365;28;20091;-77
2023/06/19 00:31:37;;;;;;;1.73;0.80;;;;;;;;;;4945195;28;20701;-77
2023/06/19 00:34:03;;;;;;;0.35;0.30;;;;;;;;;;4927917;28;20478;-76
2023/06/19 00:36:30;;;;;;;1.20;0.90;;;;;;;;;;4945968;28;20067;-77
2023/06/19 00:38:56;;;;;;;0.95;0.50;;;;;;;;;;4945686;28;20158;-76
2023/06/19 00:41:23;;;;;;;0.20;0.20;;;;;;;;;;4943923;28;20067;-76
2023/06/19 00:43:52;;;;;;;2.25;1.30;;;;;;;;;;4944729;28;20047;-77
2023/06/19 00:46:18;;;;;;;1.48;1.08;;;;;;;;;;4943346;28;20056;-75
2023/06/19 00:48:45;;;;;;;0.60;0.43;;;;;;;;;;4945200;28;20522;-76
2023/06/19 00:51:11;;;;;;;1.15;0.50;;;;;;;;;;4945186;28;20107;-77
2023/06/19 00:53:37;;;;;;;0.73;0.73;;;;;;;;;;4945658;28;20142;-77
2023/06/19 00:56:05;;;;;;;0.38;0.32;;;;;;;;;;4944992;28;20336;-76
2023/06/19 00:58:32;;;;;;;1.88;0.40;;;;;;;;;;4945463;28;20542;-76
2023/06/19 01:00:58;;;;;;;0.65;0.40;;;;;;;;;;4944847;28;20150;-76
2023/06/19 01:03:35;;;;;;;0.70;0.50;;;;;;;;;;4929447;28;20436;-75
2023/06/19 01:06:05;;;;;;;0.20;0.20;;;;;;;;;;4927161;28;20503;-75
2023/06/19 01:08:34;;;;;;;2.05;0.90;;;;;;;;;;4944428;28;20064;-76
2023/06/19 01:11:02;;;;;;;0.30;0.30;;;;;;;;;;4944768;28;20079;-75
2023/06/19 01:13:59;;;;;;;0.43;0.40;;;;;;;;;;4943282;28;20138;-76
2023/06/19 01:16:26;;;;;;;0.60;0.50;;;;;;;;;;4928487;28;20063;-77
2023/06/19 01:18:53;;;;;;;0.35;0.35;;;;;;;;;;4945175;28;20585;-77
2023/06/19 01:21:20;;;;;;;0.30;0.30;;;;;;;;;;4947459;28;20051;-77
2023/06/19 01:23:46;;;;;;;0.13;0.13;;;;;;;;;;4946527;28;20040;-76
2023/06/19 01:26:13;;;;;;;0.68;0.50;;;;;;;;;;4945998;28;20283;-77
2023/06/19 01:28:41;;;;;;;0.35;0.35;;;;;;;;;;4946494;28;20059;-77
2023/06/19 01:31:20;;;;;;;0.40;0.40;;;;;;;;;;4945575;28;20055;-76
2023/06/19 01:33:47;;;;;;;0.13;0.13;;;;;;;;;;4945779;28;20060;-76
2023/06/19 01:36:14;;;;;;;0.35;0.35;;;;;;;;;;4947010;28;20063;-76
2023/06/19 01:38:43;;;;;;;1.10;0.50;;;;;;;;;;4943974;28;20569;-76
2023/06/19 01:41:09;;;;;;;0.70;0.52;;;;;;;;;;4943021;28;20055;-77
2023/06/19 01:43:37;;;;;;;0.45;0.32;;;;;;;;;;4931122;28;20060;-77
2023/06/19 01:46:03;;;;;;;0.20;0.20;;;;;;;;;;4947168;28;20138;-76
2023/06/19 01:48:29;;;;;;;0.15;0.13;;;;;;;;;;4946352;28;20067;-76
2023/06/19 01:50:56;;;;;;;0.22;0.22;;;;;;;;;;4944130;28;20055;-76
2023/06/19 01:53:22;;;;;;;0.25;0.20;;;;;;;;;;4945763;28;20091;-75
2023/06/19 01:55:49;;;;;;;0.20;0.20;;;;;;;;;;4946612;28;20055;-77
2023/06/19 01:58:15;;;;;;;0.52;0.28;;;;;;;;;;4949650;28;20056;-77
2023/06/19 02:00:42;;;;;;;0.20;0.20;;;;;;;;;;4947124;28;20063;-77
2023/06/19 02:03:08;;;;;;;0.32;0.28;;;;;;;;;;4948639;28;20162;-77
2023/06/19 02:05:39;;;;;;;0.25;0.25;;;;;;;;;;4949152;28;20206;-78
2023/06/19 02:08:06;;;;;;;0.17;0.17;;;;;;;;;;4944176;28;20066;-78
2023/06/19 02:10:32;;;;;;;1.42;0.30;;;;;;;;;;4930014;28;20058;-78
2023/06/19 02:12:59;;;;;;;0.35;0.35;;;;;;;;;;4947476;28;20078;-75
2023/06/19 02:15:25;;;;;;;0.30;0.30;;;;;;;;;;4944928;28;20059;-76
2023/06/19 02:17:54;;;;;;;0.10;0.10;;;;;;;;;;4942835;28;20139;-75
2023/06/19 02:20:24;;;;;;;0.20;0.20;;;;;;;;;;4943731;28;20056;-75
2023/06/19 02:22:51;;;;;;;0.20;0.20;;;;;;;;;;4944557;28;20059;-76
2023/06/19 02:25:18;;;;;;;0.22;0.22;;;;;;;;;;4943957;28;20570;-75
2023/06/19 02:27:45;;;;;;;0.20;0.20;;;;;;;;;;4943896;28;20148;-76
2023/06/19 02:30:11;;;;;;;0.47;0.47;;;;;;;;;;4943337;28;20056;-75
2023/06/19 02:32:38;;;;;;;0.20;0.20;;;;;;;;;;4945707;28;20055;-76
2023/06/19 02:35:06;;;;;;;0.20;0.20;;;;;;;;;;4946949;28;20594;-77
2023/06/19 02:37:32;;;;;;;0.25;0.25;;;;;;;;;;4945218;28;20052;-76
2023/06/19 02:39:58;;;;;;;0.15;0.15;;;;;;;;;;4944943;28;20525;-76
2023/06/19 02:42:25;;;;;;;0.20;0.20;;;;;;;;;;4945952;28;20494;-76
2023/06/19 02:44:51;;;;;;;0.15;0.15;;;;;;;;;;4947932;28;20056;-76
2023/06/19 02:47:18;;;;;;;0.25;0.20;;;;;;;;;;4929086;28;20119;-75
2023/06/19 02:49:44;;;;;;;0.60;0.43;;;;;;;;;;4947236;28;20142;-75
2023/06/19 02:52:10;;;;;;;0.20;0.20;;;;;;;;;;4946563;28;20051;-76
2023/06/19 02:54:37;;;;;;;0.20;0.20;;;;;;;;;;4945674;28;20059;-76
2023/06/19 02:57:03;;;;;;;0.10;0.10;;;;;;;;;;4946342;28;20064;-76
2023/06/19 02:59:30;;;;;;;0.20;0.20;;;;;;;;;;4946363;28;20059;-75
2023/06/19 03:01:56;;;;;;;0.20;0.20;;;;;;;;;;4945973;28;20701;-75
2023/06/19 03:04:23;;;;;;;0.60;0.40;;;;;;;;;;4946522;28;20052;-75
2023/06/19 03:06:53;;;;;;;0.20;0.20;;;;;;;;;;4929360;28;20051;-76
2023/06/19 03:09:19;;;;;;;0.15;0.15;;;;;;;;;;4946749;28;20052;-76
2023/06/19 03:11:46;;;;;;;0.57;0.40;;;;;;;;;;4947340;28;20134;-77
2023/06/19 03:14:12;;;;;;;0.22;0.22;;;;;;;;;;4947375;28;20158;-76
2023/06/19 03:16:39;;;;;;;0.45;0.40;;;;;;;;;;4945524;28;20050;-77
2023/06/19 03:19:05;;;;;;;0.10;0.10;;;;;;;;;;4945244;28;20685;-75
2023/06/19 03:21:32;;;;;;;0.20;0.20;;;;;;;;;;4929245;28;20789;-76
2023/06/19 03:23:58;;;;;;;0.10;0.10;;;;;;;;;;4945281;28;20139;-76
2023/06/19 03:26:25;;;;;;;0.35;0.30;;;;;;;;;;4946148;28;20146;-76
2023/06/19 03:28:51;;;;;;;0.93;0.17;;;;;;;;;;4944565;28;20059;-76
2023/06/19 03:31:18;;;;;;;0.35;0.35;;;;;;;;;;4943149;28;20047;-76
2023/06/19 03:33:44;;;;;;;0.20;0.20;;;;;;;;;;4947216;28;20126;-76
2023/06/19 03:36:11;;;;;;;0.20;0.20;;;;;;;;;;4929856;28;20146;-76
2023/06/19 03:38:37;;;;;;;0.30;0.30;;;;;;;;;;4944985;28;20498;-76
2023/06/19 03:41:04;;;;;;;0.45;0.40;;;;;;;;;;4944293;28;20060;-76
2023/06/19 03:43:30;;;;;;;0.20;0.20;;;;;;;;;;4944812;28;20060;-76
2023/06/19 03:45:57;;;;;;;0.90;0.47;;;;;;;;;;4946894;28;20122;-76
2023/06/19 03:48:23;;;;;;;0.20;0.20;;;;;;;;;;4946065;28;20055;-76
2023/06/19 03:50:49;;;;;;;0.35;0.30;;;;;;;;;;4946249;28;20178;-76
2023/06/19 03:53:16;;;;;;;0.20;0.20;;;;;;;;;;4946500;28;20056;-77
2023/06/19 03:55:42;;;;;;;0.65;0.60;;;;;;;;;;4929326;28;20139;-77
2023/06/19 03:58:09;;;;;;;0.50;0.30;;;;;;;;;;4927241;28;20113;-77
2023/06/19 04:00:35;;;;;;;0.10;0.10;;;;;;;;;;4947291;28;20066;-76
2023/06/19 04:03:02;;;;;;;0.20;0.20;;;;;;;;;;4945788;28;20155;-77
2023/06/19 04:05:28;;;;;;;0.20;0.20;;;;;;;;;;4942751;28;20062;-77
2023/06/19 04:07:55;;;;;;;0.43;0.32;;;;;;;;;;4946030;28;20059;-77
2023/06/19 04:10:21;;;;;;;0.50;0.50;;;;;;;;;;4946094;28;20055;-77
2023/06/19 04:12:48;;;;;;;0.30;0.30;;;;;;;;;;4946508;28;20086;-76
2023/06/19 04:15:14;;;;;;;0.38;0.38;;;;;;;;;;4950412;28;20066;-77
2023/06/19 04:17:41;;;;;;;0.20;0.20;;;;;;;;;;4947846;28;20060;-77
2023/06/19 04:20:10;;;;;;;0.20;0.20;;;;;;;;;;4947815;28;20060;-78
2023/06/19 04:22:38;;;;;;;0.20;0.20;;;;;;;;;;4948355;28;20067;-78
2023/06/19 04:25:06;;;;;;;0.88;0.73;;;;;;;;;;4948304;28;20058;-76
2023/06/19 04:27:32;;;;;;;0.20;0.20;;;;;;;;;;4947340;28;20052;-77
2023/06/19 04:29:59;;;;;;;0.45;0.35;;;;;;;;;;4945100;28;20091;-77
2023/06/19 04:32:25;;;;;;;0.35;0.35;;;;;;;;;;4948144;28;20067;-77
2023/06/19 04:34:52;;;;;;;0.25;0.20;;;;;;;;;;4948400;28;20056;-77
2023/06/19 04:37:19;;;;;;;0.40;0.40;;;;;;;;;;4948746;28;20086;-78
2023/06/19 04:39:46;;;;;;;0.38;0.32;;;;;;;;;;4948314;28;20063;-77
2023/06/19 04:42:13;;;;;;;0.60;0.60;;;;;;;;;;4944102;28;20056;-77
2023/06/19 04:48:03;;;;;;;0.20;0.20;;;;;;;;;;4963080;28;20051;-77
2023/06/19 04:50:30;;;;;;;0.32;0.30;;;;;;;;;;4955254;28;20064;-76
2023/06/19 04:52:56;;;;;;;0.40;0.40;;;;;;;;;;4962312;28;20066;-77
2023/06/19 04:55:25;;;;;;;0.38;0.38;;;;;;;;;;4948405;28;20059;-75
2023/06/19 04:57:51;;;;;;;0.63;0.38;;;;;;;;;;4963743;28;20065;-75
2023/06/19 05:00:23;;;;;;;0.45;0.45;;;;;;;;;;4965638;28;20081;-75
2023/06/19 05:02:50;;;;;;;0.35;0.30;;;;;;;;;;4954961;28;20063;-76
2023/06/19 05:05:16;;;;;;;0.52;0.40;;;;;;;;;;4961849;28;20085;-76
2023/06/19 05:07:45;;;;;;;0.55;0.40;;;;;;;;;;4964077;28;20137;-77
2023/06/19 05:10:11;;;;;;;0.47;0.35;;;;;;;;;;4965903;28;20058;-77
2023/06/19 05:12:38;;;;;;;0.20;0.20;;;;;;;;;;4958593;28;20130;-76
2023/06/19 05:15:04;;;;;;;1.08;0.57;;;;;;;;;;4954715;28;20055;-77
2023/06/19 05:17:31;;;;;;;0.28;0.25;;;;;;;;;;4954462;28;20074;-76
2023/06/19 05:19:57;;;;;;;1.85;0.82;;;;;;;;;;4956907;28;20121;-76
2023/06/19 05:22:24;;;;;;;0.32;0.20;;;;;;;;;;4956508;28;20510;-76
2023/06/19 05:24:51;;;;;;;0.17;0.17;;;;;;;;;;4960128;28;20088;-76
2023/06/19 05:27:18;;;;;;;0.30;0.20;;;;;;;;;;4952182;28;20117;-76
2023/06/19 05:29:44;;;;;;;0.20;0.20;;;;;;;;;;4964802;28;20528;-76
2023/06/19 05:32:10;;;;;;;0.88;0.57;;;;;;;;;;4960304;28;20051;-76
2023/06/19 05:34:37;;;;;;;0.30;0.30;;;;;;;;;;4947277;28;20061;-77
2023/06/19 05:37:03;;;;;;;0.30;0.30;;;;;;;;;;4964198;28;20055;-77
2023/06/19 05:39:30;;;;;;;0.30;0.30;;;;;;;;;;4962588;28;20058;-76
2023/06/19 05:41:56;;;;;;;0.20;0.20;;;;;;;;;;4964103;28;20074;-77
2023/06/19 05:44:23;;;;;;;3.00;0.35;;;;;;;;;;4965130;28;20529;-77
2023/06/19 05:46:49;;;;;;;0.80;0.30;;;;;;;;;;4957712;28;20209;-76
2023/06/19 05:49:15;;;;;;;0.47;0.40;;;;;;;;;;4963314;28;20131;-77
2023/06/19 05:51:43;;;;;;;0.40;0.35;;;;;;;;;;4965550;28;20133;-77
2023/06/19 05:54:09;;;;;;;1.42;0.50;;;;;;;;;;4961334;28;20055;-76
2023/06/19 05:56:36;;;;;;;0.22;0.22;;;;;;;;;;4955592;28;20057;-77
2023/06/19 05:59:02;;;;;;;0.20;0.20;;;;;;;;;;4962555;28;20051;-76
2023/06/19 06:01:29;;;;;;;0.43;0.32;;;;;;;;;;4956902;28;20142;-78
2023/06/19 06:03:56;;;;;;;0.20;0.20;;;;;;;;;;4948374;28;20052;-77
2023/06/19 06:06:23;;;;;;;0.35;0.35;;;;;;;;;;4958588;28;20137;-77
2023/06/19 06:08:51;;;;;;;0.30;0.30;;;;;;;;;;4963452;28;20055;-77
2023/06/19 06:11:18;;;;;;;0.20;0.20;;;;;;;;;;4951025;28;20596;-77
2023/06/19 06:13:44;;;;;;;0.98;0.43;;;;;;;;;;4951802;28;20587;-76
2023/06/19 06:16:10;;;;;;;0.43;0.32;;;;;;;;;;4949816;28;20506;-77
2023/06/19 06:18:37;;;;;;;1.27;0.95;;;;;;;;;;4949145;28;20321;-76
2023/06/19 06:21:04;;;;;;;1.63;0.60;;;;;;;;;;4949465;28;20474;-77
2023/06/19 06:23:30;;;;;;;0.20;0.20;;;;;;;;;;4949718;28;20541;-76
2023/06/19 06:26:01;;;;;;;0.95;0.50;;;;;;;;;;4959714;28;20120;-77
2023/06/19 06:28:28;;;;;;;1.10;0.95;;;;;;;;;;4966238;28;20055;-76
2023/06/19 06:30:55;;;;;;;0.63;0.40;;;;;;;;;;4967671;28;20062;-77
2023/06/19 06:33:22;;;;;;;0.30;0.28;;;;;;;;;;4955509;28;20473;-76
2023/06/19 06:35:48;;;;;;;0.35;0.30;;;;;;;;;;4963310;28;20063;-77
2023/06/19 06:38:15;;;;;;;1.25;0.55;;;;;;;;;;4961138;28;20877;-76
2023/06/19 06:40:43;;;;;;;0.10;0.10;;;;;;;;;;4956278;28;20055;-76
2023/06/19 06:43:09;;;;;;;0.55;0.55;;;;;;;;;;4957976;28;20059;-77
2023/06/19 06:45:37;;;;;;;1.05;0.40;;;;;;;;;;4961791;28;20548;-77
2023/06/19 06:48:05;;;;;;;0.57;0.55;;;;;;;;;;4953619;28;20158;-77
2023/06/19 06:50:32;;;;;;;0.95;0.52;;;;;;;;;;4956637;28;20938;-77
2023/06/19 06:52:58;;;;;;;1.13;0.52;;;;;;;;;;4964999;28;21051;-76
2023/06/19 06:55:24;;;;;;;1.25;0.82;;;;;;;;;;4959293;28;20059;-79
2023/06/19 06:57:51;;;;;;;0.75;0.68;;;;;;;;;;4964265;28;20058;-76
2023/06/19 07:00:18;;;;;;;0.20;0.20;;;;;;;;;;4955774;28;20055;-75
2023/06/19 07:02:47;;;;;;;1.23;0.50;;;;;;;;;;4961103;28;20062;-75
2023/06/19 07:05:14;;;;;;;0.40;0.30;;;;;;;;;;4955918;28;20777;-75
2023/06/19 07:07:40;;;;;;;2.17;1.30;;;;;;;;;;4961206;28;20066;-75
2023/06/19 07:10:07;;;;;;;1.33;0.57;;;;;;;;;;4957943;28;20063;-75
2023/06/19 07:12:34;;;;;;;0.43;0.43;;;;;;;;;;4966434;28;20080;-78
2023/06/19 07:15:00;;;;;;;0.70;0.45;;;;;;;;;;4966349;28;20051;-76
2023/06/19 07:17:26;;;;;;;0.68;0.60;;;;;;;;;;4953322;28;20063;-76
2023/06/19 07:19:53;;;;;;;0.30;0.30;;;;;;;;;;4957575;28;20051;-75
2023/06/19 07:22:19;;;;;;;2.20;1.17;;;;;;;;;;4960753;28;20055;-74
2023/06/19 07:24:46;;;;;;;2.38;1.17;;;;;;;;;;4967636;28;20047;-77
2023/06/19 07:27:12;;;;;;;0.73;0.63;;;;;;;;;;4965782;28;20074;-74
2023/06/19 07:29:39;;;;;;;1.27;0.80;;;;;;;;;;4949565;28;20043;-76
2023/06/19 07:32:06;;;;;;;0.22;0.22;;;;;;;;;;4947022;28;20056;-76
2023/06/19 07:34:32;;;;;;;1.05;0.50;;;;;;;;;;4954409;28;20084;-75
2023/06/19 07:36:58;;;;;;;0.85;0.55;;;;;;;;;;4947552;28;20056;-74
2023/06/19 07:39:25;;;;;;;0.95;0.60;;;;;;;;;;4950917;28;20111;-75
2023/06/19 07:41:51;;;;;;;0.55;0.43;;;;;;;;;;4947107;28;20125;-75
2023/06/19 07:44:20;;;;;;;0.50;0.47;;;;;;;;;;4973859;28;20110;-75
2023/06/19 07:46:46;;;;;;;0.50;0.50;;;;;;;;;;4949126;28;20059;-75
2023/06/19 07:49:13;;;;;;;1.80;0.98;;;;;;;;;;4959636;28;20058;-75
2023/06/19 07:51:39;;;;;;;0.38;0.30;;;;;;;;;;4966212;28;20059;-75
2023/06/19 07:54:06;;;;;;;1.20;0.77;;;;;;;;;;4966765;28;20708;-75
2023/06/19 07:56:33;;;;;;;0.38;0.38;;;;;;;;;;4957014;28;20055;-75
2023/06/19 07:58:59;;;;;;;2.53;0.98;;;;;;;;;;4958958;28;20064;-75
2023/06/19 08:01:26;;;;;;;2.70;0.82;;;;;;;;;;4955308;28;20051;-74
2023/06/19 08:03:52;;;;;;;0.70;0.70;;;;;;;;;;4964873;28;20055;-75
2023/06/19 08:06:19;;;;;;;0.85;0.70;;;;;;;;;;4960322;28;20058;-75
2023/06/19 08:08:46;;;;;;;0.98;0.50;;;;;;;;;;4957807;28;20056;-75
2023/06/19 08:11:12;;;;;;;0.30;0.28;;;;;;;;;;4945402;28;20634;-74
2023/06/19 08:13:45;;;;;;;1.08;0.65;;;;;;;;;;4951828;28;20067;-76
2023/06/19 08:16:18;;;;;;;0.57;0.57;;;;;;;;;;4952597;28;20063;-76
2023/06/19 08:18:51;;;;;;;1.15;0.73;;;;;;;;;;4953219;28;20060;-76
2023/06/19 08:21:26;;;;;;;0.30;0.30;;;;;;;;;;4946487;28;20059;-73
2023/06/19 08:23:56;;;;;;;0.35;0.35;;;;;;;;;;4946842;28;20566;-75
2023/06/19 08:26:29;;;;;;;0.30;0.30;;;;;;;;;;4955951;28;20059;-75
2023/06/19 08:29:02;;;;;;;0.28;0.28;;;;;;;;;;4947695;28;20544;-76
2023/06/19 08:31:35;;;;;;;0.57;0.43;;;;;;;;;;4955404;28;20064;-75
2023/06/19 08:53:36;;;;;;;2.63;0.88;;;;;;;;;;5107056;27;1297006;-76
2023/06/19 08:56:03;;;;;;;0.32;0.30;;;;;;;;;;5148034;27;20086;-73
2023/06/19 08:58:29;;;;;;;0.73;0.40;;;;;;;;;;5137740;27;20571;-73
2023/06/19 09:00:59;;;;;;;0.38;0.38;;;;;;;;;;5141254;27;20053;-74
2023/06/19 09:03:25;;;;;;;1.70;1.30;;;;;;;;;;5139211;27;20051;-73
2023/06/19 09:05:52;;;;;;;1.02;0.55;;;;;;;;;;5139601;27;21137;-72
2023/06/19 09:08:19;;;;;;;0.70;0.50;;;;;;;;;;5142128;27;20051;-74
2023/06/19 09:11:12;;;;;;;0.73;0.57;;;;;;;;;;5139047;27;20043;-74
2023/06/19 09:13:38;;;;;;;0.20;0.20;;;;;;;;;;5121156;27;20051;-74
2023/06/19 09:16:08;;;;;;;0.80;0.60;;;;;;;;;;5130894;27;20121;-74
2023/06/19 09:18:45;;;;;;;0.75;0.55;;;;;;;;;;5142585;27;20047;-73
2023/06/19 09:21:18;;;;;;;0.65;0.50;;;;;;;;;;5135956;27;20109;-74
2023/06/19 09:31:39;;;;;;;1.02;0.60;;;;;;;;;;5825542;23;20048;-73
2023/06/19 09:34:05;;;;;;;0.55;0.43;;;;;;;;;;5064643;28;20057;-76
2023/06/19 09:36:32;;;;;;;0.85;0.77;;;;;;;;;;5050603;28;20740;-74
2023/06/19 09:38:59;;;;;;;1.58;1.00;;;;;;;;;;5058817;28;20135;-75
2023/06/19 09:44:02;;;;;;;1.23;0.47;;;;;;;;;;5783617;22;20615;-77
2023/06/19 09:49:28;;;;;;;0.85;0.55;;;;;;;;;;5260107;22;20057;-77
2023/06/19 09:51:54;;;;;;;0.28;0.28;;;;;;;;;;5055135;28;20057;-77
2023/06/19 09:54:21;;;;;;;0.32;0.32;;;;;;;;;;5051050;28;20116;-77
2023/06/19 09:56:50;;;;;;;0.82;0.60;;;;;;;;;;5053317;28;20057;-77
2023/06/19 09:59:18;;;;;;;0.55;0.30;;;;;;;;;;5004933;28;20050;-77
2023/06/19 10:01:45;;;;;;;1.08;0.60;;;;;;;;;;5025558;28;20061;-76
2023/06/19 10:04:12;;;;;;;1.15;0.77;;;;;;;;;;5019454;28;20045;-77
2023/06/19 10:06:45;;;;;;;1.50;0.90;;;;;;;;;;5022974;28;20840;-77
2023/06/19 10:09:14;;;;;;;1.20;0.70;;;;;;;;;;5003510;28;20145;-78
2023/06/19 10:11:44;;;;;;;0.93;0.57;;;;;;;;;;5013932;28;20551;-75
2023/06/19 10:14:11;;;;;;;1.40;0.82;;;;;;;;;;5023596;28;20117;-76
2023/06/19 10:16:37;;;;;;;2.08;0.82;;;;;;;;;;5018239;28;20128;-73
2023/06/19 10:19:11;;;;;;;3.13;1.50;;;;;;;;;;5022893;28;20054;-73
2023/06/19 10:21:45;;;;;;;1.15;0.50;;;;;;;;;;5011308;28;20058;-74
2023/06/19 10:24:14;;;;;;;0.57;0.57;;;;;;;;;;5008982;28;20050;-73
2023/06/19 10:26:40;;;;;;;0.82;0.60;;;;;;;;;;5024244;28;20112;-73
2023/06/19 10:29:14;;;;;;;0.85;0.77;;;;;;;;;;5007112;28;20062;-76
2023/06/19 10:31:40;;;;;;;2.85;1.00;;;;;;;;;;5022486;28;20140;-76
2023/06/19 10:34:07;;;;;;;1.38;1.08;;;;;;;;;;5023804;28;20065;-76
2023/06/19 10:36:33;;;;;;;1.05;0.77;;;;;;;;;;5026104;28;20058;-75
2023/06/19 10:39:00;;;;;;;0.55;0.50;;;;;;;;;;5022995;28;20713;-76
2023/06/19 10:41:26;;;;;;;1.30;0.80;;;;;;;;;;5023743;28;20060;-76
2023/06/19 10:43:56;;;;;;;0.30;0.30;;;;;;;;;;5021656;28;20062;-77
2023/06/19 10:46:23;;;;;;;1.63;0.93;;;;;;;;;;5024504;28;20054;-74
2023/06/19 10:48:51;;;;;;;1.00;0.55;;;;;;;;;;5014866;28;20490;-74
2023/06/19 10:51:18;;;;;;;1.63;0.77;;;;;;;;;;5017926;28;20520;-75
2023/06/19 10:53:44;;;;;;;0.30;0.30;;;;;;;;;;5024908;28;20084;-72
2023/06/19 10:56:11;;;;;;;1.48;0.63;;;;;;;;;;5019648;28;20589;-72
2023/06/19 10:58:37;;;;;;;1.17;0.50;;;;;;;;;;5023597;28;20057;-72
2023/06/19 11:01:03;;;;;;;0.63;0.50;;;;;;;;;;5024045;28;20513;-72
2023/06/19 11:03:31;;;;;;;1.95;0.60;;;;;;;;;;5020434;28;20209;-72
2023/06/19 11:05:58;;;;;;;1.52;1.02;;;;;;;;;;5020341;28;20515;-72
2023/06/19 11:08:24;;;;;;;1.02;0.85;;;;;;;;;;5027800;28;20081;-71
2023/06/19 11:10:50;;;;;;;0.60;0.45;;;;;;;;;;5025590;28;20081;-72
2023/06/19 11:13:20;;;;;;;0.93;0.60;;;;;;;;;;5014711;28;20050;-72
2023/06/19 11:15:50;;;;;;;0.30;0.30;;;;;;;;;;5023155;28;20061;-74
2023/06/19 11:18:17;;;;;;;1.20;0.70;;;;;;;;;;5026238;28;20590;-73
2023/06/19 11:20:49;;;;;;;1.17;0.60;;;;;;;;;;5024443;28;20093;-72
2023/06/19 11:23:16;;;;;;;1.52;0.95;;;;;;;;;;5024246;28;20502;-73
2023/06/19 11:25:43;;;;;;;0.80;0.57;;;;;;;;;;5026402;28;20168;-72
2023/06/19 11:36:29;;;;;;;0.40;0.35;;;;;;;;;;5095379;22;20045;-73
2023/06/19 11:38:56;;;;;;;2.47;0.57;;;;;;;;;;5041238;28;20839;-74
2023/06/19 11:41:28;;;;;;;1.48;0.80;;;;;;;;;;5036413;28;20060;-73
2023/06/19 11:43:58;;;;;;;0.90;0.45;;;;;;;;;;5034213;28;20060;-73
2023/06/19 11:46:28;;;;;;;0.75;0.68;;;;;;;;;;5040784;28;20337;-73
2023/06/19 11:48:55;;;;;;;1.98;1.08;;;;;;;;;;5042546;28;20065;-73
2023/06/19 11:51:32;;;;;;;0.63;0.50;;;;;;;;;;5027946;28;20233;-73
2023/06/19 11:53:59;;;;;;;0.82;0.70;;;;;;;;;;5043637;28;20057;-73
2023/06/19 11:56:25;;;;;;;2.10;1.45;;;;;;;;;;5322363;22;20061;-72
2023/06/19 11:58:52;;;;;;;1.13;0.57;;;;;;;;;;5035924;28;20076;-71
2023/06/19 12:04:22;;;;;;;0.65;0.50;;;;;;;;;;5191722;22;20050;-74
2023/06/19 12:06:49;;;;;;;2.60;0.80;;;;;;;;;;5024404;28;20050;-72
2023/06/19 12:09:15;;;;;;;0.32;0.30;;;;;;;;;;5022375;28;20501;-74
2023/06/19 12:11:42;;;;;;;0.95;0.65;;;;;;;;;;5004986;28;20085;-74
2023/06/19 12:14:08;;;;;;;1.17;0.80;;;;;;;;;;5018301;28;20523;-73
2023/06/19 12:16:34;;;;;;;3.05;1.73;;;;;;;;;;5025547;28;20054;-73
2023/06/19 12:19:01;;;;;;;0.73;0.60;;;;;;;;;;5022564;28;20108;-73
2023/06/19 12:21:27;;;;;;;0.93;0.73;;;;;;;;;;5024493;28;20132;-72
2023/06/19 12:24:04;;;;;;;1.15;0.80;;;;;;;;;;5016885;28;20054;-71
2023/06/19 12:26:31;;;;;;;1.55;0.90;;;;;;;;;;5024055;28;20141;-75
2023/06/19 12:28:57;;;;;;;1.25;0.88;;;;;;;;;;5012663;28;20120;-73
2023/06/19 12:31:24;;;;;;;1.02;0.60;;;;;;;;;;5023576;28;20524;-72
2023/06/19 12:33:51;;;;;;;1.17;0.52;;;;;;;;;;5025012;28;20052;-75
2023/06/19 12:36:18;;;;;;;0.98;0.82;;;;;;;;;;5017415;28;20064;-72
2023/06/19 12:38:44;;;;;;;0.82;0.77;;;;;;;;;;5023601;28;20468;-72
2023/06/19 12:41:11;;;;;;;1.13;0.70;;;;;;;;;;5021279;28;20058;-75
2023/06/19 12:43:38;;;;;;;0.57;0.50;;;;;;;;;;5024064;28;20112;-74
2023/06/19 12:46:04;;;;;;;0.40;0.40;;;;;;;;;;5018557;28;20148;-72
2023/06/19 12:48:31;;;;;;;0.93;0.55;;;;;;;;;;5023138;28;20062;-72
2023/06/19 12:50:58;;;;;;;0.88;0.60;;;;;;;;;;5022872;28;20070;-74
2023/06/19 12:53:28;;;;;;;0.98;0.63;;;;;;;;;;5023841;28;20091;-71
2023/06/19 12:55:57;;;;;;;0.70;0.50;;;;;;;;;;5025411;28;20058;-72
2023/06/19 12:58:29;;;;;;;0.68;0.68;;;;;;;;;;5024930;28;20108;-75
2023/06/19 13:00:55;;;;;;;0.75;0.40;;;;;;;;;;5024207;28;20061;-71
2023/06/19 13:03:22;;;;;;;0.77;0.68;;;;;;;;;;5022886;28;20050;-75
2023/06/19 13:05:48;;;;;;;1.80;1.25;;;;;;;;;;5024667;28;20057;-73
2023/06/19 13:08:15;;;;;;;0.88;0.70;;;;;;;;;;5024609;28;20509;-71
2023/06/19 13:10:41;;;;;;;0.73;0.50;;;;;;;;;;5025344;28;20762;-71
2023/06/19 13:13:10;;;;;;;0.40;0.40;;;;;;;;;;5023241;28;20054;-72
2023/06/19 13:15:36;;;;;;;0.47;0.47;;;;;;;;;;5024081;28;20137;-72
2023/06/19 13:18:03;;;;;;;0.80;0.55;;;;;;;;;;5022395;28;20553;-73
2023/06/19 13:20:29;;;;;;;2.28;0.98;;;;;;;;;;5016122;28;20065;-75
2023/06/19 13:22:56;;;;;;;1.05;0.88;;;;;;;;;;5022596;28;20084;-73
2023/06/19 13:25:22;;;;;;;0.40;0.40;;;;;;;;;;5018561;28;20631;-74
2023/06/19 13:27:49;;;;;;;0.88;0.60;;;;;;;;;;5018727;28;20058;-73
2023/06/19 13:30:16;;;;;;;2.63;1.35;;;;;;;;;;5024851;28;20058;-74
2023/06/19 13:32:42;;;;;;;0.60;0.50;;;;;;;;;;5020371;28;20060;-74
2023/06/19 13:35:09;;;;;;;2.70;1.20;;;;;;;;;;5015702;28;20600;-73
2023/06/19 13:37:38;;;;;;;0.82;0.60;;;;;;;;;;5024442;28;20065;-74
2023/06/19 13:40:05;;;;;;;0.30;0.30;;;;;;;;;;5026198;28;20065;-75
2023/06/19 13:42:33;;;;;;;0.52;0.47;;;;;;;;;;5025911;28;20061;-74
2023/06/19 13:44:59;;;;;;;0.40;0.40;;;;;;;;;;5019182;28;20057;-73
2023/06/19 13:47:27;;;;;;;1.08;0.93;;;;;;;;;;5026388;28;20061;-73
2023/06/19 13:49:53;;;;;;;0.88;0.60;;;;;;;;;;5025301;28;20137;-74
2023/06/19 13:52:21;;;;;;;0.60;0.43;;;;;;;;;;5025357;28;20104;-74
2023/06/19 13:54:48;;;;;;;0.32;0.32;;;;;;;;;;5027803;28;20176;-73
2023/06/19 13:57:15;;;;;;;0.88;0.55;;;;;;;;;;5026387;28;20153;-73
2023/06/19 13:59:42;;;;;;;0.45;0.45;;;;;;;;;;5026570;28;20120;-74
2023/06/19 14:02:10;;;;;;;1.52;0.65;;;;;;;;;;5022469;28;20058;-73
2023/06/19 14:07:16;;;;;;;0.55;0.40;;;;;;;;;;5731452;22;20051;-73
2023/06/19 14:09:43;;;;;;;0.55;0.50;;;;;;;;;;4984137;28;20182;-74
2023/06/19 14:12:09;;;;;;;0.40;0.40;;;;;;;;;;4999841;28;20054;-73
2023/06/19 14:14:36;;;;;;;0.93;0.68;;;;;;;;;;5003665;28;20058;-73
2023/06/19 14:17:03;;;;;;;1.45;0.73;;;;;;;;;;4988014;28;20050;-75
2023/06/19 14:19:29;;;;;;;0.82;0.50;;;;;;;;;;5007794;28;20070;-73
2023/06/19 14:21:56;;;;;;;1.55;0.55;;;;;;;;;;5005500;28;20061;-74
2023/06/19 14:24:24;;;;;;;0.43;0.43;;;;;;;;;;5004859;28;20061;-74
2023/06/19 14:26:50;;;;;;;0.55;0.52;;;;;;;;;;5000195;28;20502;-74
2023/06/19 14:29:18;;;;;;;0.75;0.57;;;;;;;;;;5016663;28;20066;-75
2023/06/19 14:31:45;;;;;;;0.45;0.45;;;;;;;;;;5006854;28;20054;-75
2023/06/19 14:34:11;;;;;;;0.77;0.50;;;;;;;;;;4988496;28;20062;-75
2023/06/19 14:36:38;;;;;;;0.30;0.30;;;;;;;;;;5003070;28;20082;-75
2023/06/19 14:39:04;;;;;;;0.40;0.40;;;;;;;;;;5005533;28;20161;-75
2023/06/19 14:41:31;;;;;;;0.60;0.50;;;;;;;;;;5005207;28;20061;-74
2023/06/19 14:43:57;;;;;;;0.38;0.30;;;;;;;;;;5004859;28;20168;-75
2023/06/19 14:46:24;;;;;;;1.42;1.00;;;;;;;;;;5004991;28;20061;-74
2023/06/19 14:49:05;;;;;;;0.68;0.60;;;;;;;;;;5004391;28;20065;-75
2023/06/19 14:51:32;;;;;;;2.00;0.57;;;;;;;;;;4998523;28;20050;-73
2023/06/19 14:53:59;;;;;;;0.45;0.45;;;;;;;;;;5004023;28;20426;-74
2023/06/19 14:56:26;;;;;;;3.17;0.93;;;;;;;;;;5002839;28;20065;-74
2023/06/19 14:58:53;;;;;;;0.73;0.63;;;;;;;;;;5001384;28;20141;-75
2023/06/19 15:01:19;;;;;;;0.70;0.68;;;;;;;;;;4984509;28;20426;-75
2023/06/19 15:03:47;;;;;;;0.50;0.40;;;;;;;;;;5004284;28;20058;-74
2023/06/19 15:06:13;;;;;;;1.35;1.00;;;;;;;;;;5005593;28;20046;-75
2023/06/19 15:08:42;;;;;;;1.17;0.60;;;;;;;;;;5003275;28;20086;-75
2023/06/19 15:11:08;;;;;;;0.43;0.40;;;;;;;;;;5005119;28;20054;-73
2023/06/19 15:13:35;;;;;;;0.45;0.43;;;;;;;;;;5005061;28;20050;-75
2023/06/19 15:16:02;;;;;;;0.40;0.40;;;;;;;;;;5003294;28;20058;-75
2023/06/19 15:18:28;;;;;;;0.30;0.30;;;;;;;;;;4998838;28;20137;-74
2023/06/19 15:20:55;;;;;;;0.32;0.30;;;;;;;;;;5004496;28;20061;-74
2023/06/19 15:23:21;;;;;;;0.90;0.70;;;;;;;;;;5005913;28;20596;-75
2023/06/19 15:25:48;;;;;;;0.40;0.40;;;;;;;;;;5005305;28;20054;-73
2023/06/19 15:28:15;;;;;;;0.32;0.32;;;;;;;;;;5004967;28;20101;-75
2023/06/19 15:30:41;;;;;;;0.65;0.63;;;;;;;;;;5001716;28;20062;-73
2023/06/19 15:33:08;;;;;;;0.55;0.45;;;;;;;;;;5004802;28;20688;-75
2023/06/19 15:35:34;;;;;;;0.30;0.30;;;;;;;;;;4999388;28;20093;-75